createdAt,value
2022-10-31T00:00:22.829Z,100253.09
2022-10-31T00:01:54.769Z,100249.63
2022-10-31T00:03:27.705Z,100259.09
2022-10-31T00:04:59.632Z,100257.38
2022-10-31T00:06:31.953Z,100257.38
2022-10-31T00:08:04.046Z,100253.06
2022-10-31T00:09:36.140Z,100253.16
2022-10-31T00:11:11.484Z,100260.88
2022-10-31T00:12:43.475Z,100252.31
2022-10-31T00:14:15.454Z,100253.25
2022-10-31T00:15:50.410Z,100249.78
2022-10-31T00:17:22.494Z,100253.22
2022-10-31T00:18:59.200Z,100264.38
2022-10-31T00:20:31.320Z,100264.41
2022-10-31T00:22:03.346Z,100262.69
2022-10-31T00:23:35.291Z,100254.91
2022-10-31T00:25:07.470Z,100266.13
2022-10-31T00:31:36.936Z,100259.13
2022-10-31T00:33:08.944Z,100260.88
2022-10-31T00:34:40.943Z,100257.47
2022-10-31T00:36:15.256Z,100259.13
2022-10-31T00:37:47.331Z,100254.00
2022-10-31T00:39:19.279Z,100262.63
2022-10-31T00:40:51.305Z,100261.72
2022-10-31T00:42:23.241Z,100261.69
2022-10-31T00:43:55.335Z,100253.84
2022-10-31T00:45:27.453Z,100255.56
2022-10-31T00:46:59.535Z,100253.00
2022-10-31T00:48:31.675Z,100257.25
2022-10-31T00:50:05.386Z,100245.91
2022-10-31T00:51:37.321Z,100246.78
2022-10-31T00:53:09.518Z,100256.19
2022-10-31T00:54:41.529Z,100250.06
2022-10-31T00:56:13.551Z,100248.28
2022-10-31T00:57:48.323Z,100250.81
2022-10-31T00:59:20.259Z,100248.19
2022-10-31T01:00:56.371Z,100249.84
2022-10-31T01:02:28.753Z,100248.09
2022-10-31T01:04:00.786Z,100245.38
2022-10-31T01:05:32.919Z,100249.59
2022-10-31T01:07:04.948Z,100257.28
2022-10-31T01:08:38.091Z,100255.53
2022-10-31T01:10:12.150Z,100259.84
2022-10-31T01:11:44.195Z,100259.03
2022-10-31T01:13:16.257Z,100259.84
2022-10-31T01:14:48.345Z,100256.31
2022-10-31T01:16:22.686Z,100259.66
2022-10-31T01:17:54.932Z,100262.25
2022-10-31T01:19:26.897Z,100260.47
2022-10-31T01:21:05.323Z,100255.16
2022-10-31T01:22:37.460Z,100256.00
2022-10-31T01:24:09.626Z,100264.63
2022-10-31T01:25:43.799Z,100259.34
2022-10-31T01:27:15.767Z,100268.81
2022-10-31T01:29:16.931Z,100257.50
2022-10-31T01:30:48.935Z,100263.63
2022-10-31T01:32:20.909Z,100261.84
2022-10-31T01:33:52.971Z,100261.81
2022-10-31T01:35:25.356Z,100260.91
2022-10-31T01:36:57.647Z,100258.31
2022-10-31T01:38:29.627Z,100264.31
2022-10-31T01:40:01.692Z,100257.34
2022-10-31T01:41:36.426Z,100260.78
2022-10-31T01:43:13.246Z,100262.34
2022-10-31T01:44:49.829Z,100258.06
2022-10-31T01:46:27.415Z,100267.50
2022-10-31T01:47:59.697Z,100263.16
2022-10-31T01:49:39.080Z,100270.84
2022-10-31T01:51:12.910Z,100256.13
2022-10-31T01:52:47.553Z,100264.81
2022-10-31T01:54:22.908Z,100259.53
2022-10-31T01:55:54.894Z,100272.50
2022-10-31T01:57:27.502Z,100267.25
2022-10-31T01:59:01.841Z,100266.38
2022-10-31T02:00:33.859Z,100271.56
2022-10-31T02:02:06.289Z,100267.16
2022-10-31T02:05:26.537Z,100266.13
2022-10-31T02:07:03.497Z,100269.59
2022-10-31T02:08:36.470Z,100267.00
2022-10-31T02:10:08.849Z,100276.47
2022-10-31T02:11:41.927Z,100279.91
2022-10-31T02:13:14.332Z,100281.63
2022-10-31T02:14:46.334Z,100266.97
2022-10-31T02:16:18.896Z,100270.47
2022-10-31T02:17:51.076Z,100274.78
2022-10-31T02:19:42.449Z,100268.66
2022-10-31T02:21:28.673Z,100269.59
2022-10-31T02:23:39.010Z,100271.38
2022-10-31T02:25:30.594Z,100276.56
2022-10-31T02:27:22.605Z,100280.94
2022-10-31T02:29:12.019Z,100283.50
2022-10-31T02:30:46.620Z,100291.31
2022-10-31T02:32:22.838Z,100283.53
2022-10-31T02:34:00.935Z,100294.78
2022-10-31T02:35:50.904Z,100290.53
2022-10-31T02:37:47.644Z,100293.06
2022-10-31T02:39:40.950Z,100285.31
2022-10-31T02:41:36.762Z,100289.66
2022-10-31T02:43:28.346Z,100291.44
2022-10-31T02:45:09.198Z,100293.22
2022-10-31T02:47:13.212Z,100293.31
2022-10-31T02:48:46.189Z,100300.38
2022-10-31T02:50:28.687Z,100299.59
2022-10-31T02:52:00.679Z,100301.50
2022-10-31T02:53:37.295Z,100305.84
2022-10-31T02:55:24.450Z,100306.72
2022-10-31T02:57:00.639Z,100307.72
2022-10-31T02:58:36.550Z,100311.25
2022-10-31T03:00:10.136Z,100300.06
2022-10-31T03:02:16.518Z,100310.56
2022-10-31T03:03:48.569Z,100311.53
2022-10-31T03:05:44.578Z,100306.38
2022-10-31T03:07:35.125Z,100298.66
2022-10-31T03:09:22.379Z,100306.50
2022-10-31T03:11:02.804Z,100307.38
2022-10-31T03:12:48.644Z,100308.25
2022-10-31T03:14:28.425Z,100311.75
2022-10-31T03:16:14.382Z,100317.78
2022-10-31T03:17:57.270Z,100312.63
2022-10-31T03:19:42.043Z,100311.84
2022-10-31T03:21:26.908Z,100317.03
2022-10-31T03:22:59.993Z,100311.94
2022-10-31T03:24:38.990Z,100314.50
2022-10-31T03:26:12.790Z,100319.75
2022-10-31T03:27:46.048Z,100320.66
2022-10-31T03:29:21.236Z,100316.38
2022-10-31T03:30:53.953Z,100321.66
2022-10-31T03:32:40.198Z,100317.38
2022-10-31T03:34:13.910Z,100329.59
2022-10-31T03:35:48.752Z,100321.00
2022-10-31T03:37:22.247Z,100321.91
2022-10-31T03:38:54.253Z,100317.56
2022-10-31T03:40:28.913Z,100327.16
2022-10-31T03:42:07.581Z,100328.94
2022-10-31T03:43:44.283Z,100324.69
2022-10-31T03:45:21.322Z,100325.59
2022-10-31T03:46:53.452Z,100328.28
2022-10-31T03:48:25.910Z,100325.69
2022-10-31T03:49:58.071Z,100330.84
2022-10-31T03:51:38.625Z,100321.44
2022-10-31T03:53:19.064Z,100328.31
2022-10-31T03:54:57.564Z,100326.63
2022-10-31T03:56:41.773Z,100321.47
2022-10-31T03:58:26.996Z,100323.22
2022-10-31T04:00:25.374Z,100325.88
2022-10-31T04:02:03.551Z,100325.09
2022-10-31T04:03:37.745Z,100324.25
2022-10-31T04:05:11.464Z,100330.34
2022-10-31T04:06:44.585Z,100331.22
2022-10-31T04:08:21.596Z,100306.38
2022-10-31T04:09:55.133Z,100319.19
2022-10-31T04:11:31.278Z,100331.28
2022-10-31T04:13:07.133Z,100336.47
2022-10-31T04:14:44.187Z,100331.31
2022-10-31T04:16:17.439Z,100328.78
2022-10-31T04:17:49.459Z,100333.91
2022-10-31T04:19:21.458Z,100331.41
2022-10-31T04:21:04.808Z,100330.53
2022-10-31T04:22:36.957Z,100326.31
2022-10-31T04:24:09.288Z,100328.91
2022-10-31T04:25:41.308Z,100331.50
2022-10-31T04:27:13.325Z,100328.97
2022-10-31T04:28:45.420Z,100331.63
2022-10-31T04:30:20.080Z,100335.09
2022-10-31T04:31:52.176Z,100330.88
2022-10-31T04:33:24.194Z,100327.44
2022-10-31T04:34:56.168Z,100336.13
2022-10-31T04:36:28.230Z,100337.91
2022-10-31T04:38:00.194Z,100336.19
2022-10-31T04:39:32.149Z,100338.81
2022-10-31T04:41:04.279Z,100338.84
2022-10-31T04:42:36.465Z,100338.84
2022-10-31T04:44:08.554Z,100338.00
2022-10-31T04:45:40.646Z,100342.34
2022-10-31T04:47:12.747Z,100342.38
2022-10-31T04:48:44.827Z,100345.06
2022-10-31T04:50:16.972Z,100348.59
2022-10-31T04:51:49.046Z,100353.81
2022-10-31T04:53:21.009Z,100349.50
2022-10-31T04:54:52.994Z,100351.25
2022-10-31T04:56:24.933Z,100354.69
2022-10-31T04:57:57.194Z,100349.50
2022-10-31T04:59:29.368Z,100356.47
2022-10-31T05:01:01.462Z,100352.13
2022-10-31T05:02:33.553Z,100355.53
2022-10-31T05:04:08.305Z,100353.81
2022-10-31T05:05:40.278Z,100359.81
2022-10-31T05:07:12.514Z,100364.09
2022-10-31T05:08:44.570Z,100368.38
2022-10-31T05:10:19.719Z,100369.25
2022-10-31T05:11:51.735Z,100365.84
2022-10-31T05:13:23.721Z,100370.97
2022-10-31T05:14:55.843Z,100375.25
2022-10-31T05:16:27.865Z,100377.84
2022-10-31T05:18:02.413Z,100366.66
2022-10-31T05:19:34.780Z,100377.84
2022-10-31T05:21:06.863Z,100373.53
2022-10-31T05:22:42.901Z,100376.09
2022-10-31T05:24:15.288Z,100379.53
2022-10-31T05:25:47.520Z,100382.97
2022-10-31T05:27:19.593Z,100384.78
2022-10-31T05:28:51.687Z,100387.41
2022-10-31T05:30:30.163Z,100385.66
2022-10-31T05:32:02.243Z,100388.28
2022-10-31T05:33:34.487Z,100383.94
2022-10-31T05:35:09.668Z,100389.09
2022-10-31T05:36:41.895Z,100386.50
2022-10-31T05:38:14.146Z,100386.50
2022-10-31T05:39:46.359Z,100395.06
2022-10-31T05:41:18.494Z,100395.06
2022-10-31T05:42:53.277Z,100396.75
2022-10-31T05:44:25.473Z,100396.75
2022-10-31T05:45:58.231Z,100400.19
2022-10-31T05:47:30.519Z,100398.41
2022-10-31T05:49:03.046Z,100396.69
2022-10-31T05:50:35.304Z,100406.13
2022-10-31T05:52:07.540Z,100408.66
2022-10-31T05:53:39.949Z,100413.78
2022-10-31T05:55:12.181Z,100400.78
2022-10-31T05:56:44.600Z,100407.59
2022-10-31T05:58:16.893Z,100413.53
2022-10-31T05:59:54.659Z,100408.28
2022-10-31T06:01:27.286Z,100409.03
2022-10-31T06:04:40.195Z,100412.31
2022-10-31T06:06:12.541Z,100416.56
2022-10-31T06:07:44.987Z,100422.53
2022-10-31T06:09:17.193Z,100418.19
2022-10-31T06:10:49.418Z,100420.66
2022-10-31T06:12:21.622Z,100418.81
2022-10-31T06:13:53.712Z,100417.03
2022-10-31T06:15:26.062Z,100417.78
2022-10-31T06:16:58.187Z,100416.81
2022-10-31T06:18:30.503Z,100425.31
2022-10-31T06:20:03.184Z,100423.47
2022-10-31T06:21:38.023Z,100430.22
2022-10-31T06:23:10.520Z,100433.63
2022-10-31T06:24:45.277Z,100430.03
2022-10-31T06:26:17.736Z,100426.44
2022-10-31T06:27:50.093Z,100422.81
2022-10-31T06:29:22.639Z,100421.81
2022-10-31T06:30:54.925Z,100424.28
2022-10-31T06:32:27.294Z,100418.97
2022-10-31T06:33:59.518Z,100426.63
2022-10-31T06:35:32.069Z,100427.38
2022-10-31T06:38:37.487Z,100427.97
2022-10-31T06:40:10.482Z,100422.56
2022-10-31T06:41:43.073Z,100423.22
2022-10-31T06:43:16.327Z,100431.69
2022-10-31T06:44:48.366Z,100427.25
2022-10-31T06:46:20.784Z,100430.47
2022-10-31T06:48:16.098Z,100433.72
2022-10-31T06:49:46.979Z,100436.97
2022-10-31T06:51:19.260Z,100429.03
2022-10-31T06:52:53.465Z,100427.09
2022-10-31T06:54:25.636Z,100432.13
2022-10-31T06:55:58.309Z,100419.81
2022-10-31T06:57:30.511Z,100427.41
2022-10-31T06:59:02.949Z,100428.13
2022-10-31T07:00:35.246Z,100435.78
2022-10-31T07:02:10.697Z,100425.06
2022-10-31T07:03:43.016Z,100415.41
2022-10-31T07:05:15.433Z,100423.81
2022-10-31T07:06:51.760Z,100422.66
2022-10-31T07:08:24.697Z,100419.69
2022-10-31T07:09:57.042Z,100418.56
2022-10-31T07:11:29.283Z,100420.91
2022-10-31T07:13:04.793Z,100417.13
2022-10-31T07:14:37.475Z,100416.88
2022-10-31T07:16:11.855Z,100419.19
2022-10-31T09:09:14.203Z,100389.84
2022-10-31T09:10:46.924Z,100397.56
2022-10-31T09:12:19.074Z,100392.28
2022-10-31T09:13:51.377Z,100385.06
2022-10-31T09:15:23.690Z,100388.22
2022-10-31T09:16:55.911Z,100382.94
2022-10-31T09:18:33.272Z,100382.09
2022-10-31T09:20:05.863Z,100387.25
2022-10-31T09:21:38.054Z,100379.19
2022-10-31T09:23:24.086Z,100378.50
2022-10-31T09:24:56.289Z,100382.16
2022-10-31T09:26:28.605Z,100388.19
2022-10-31T09:28:02.437Z,100381.06
2022-10-31T09:29:34.922Z,100385.38
2022-10-31T09:31:07.432Z,100382.38
2022-10-31T09:32:39.785Z,100382.06
2022-10-31T09:34:12.085Z,100385.47
2022-10-31T09:35:44.376Z,100378.88
2022-10-31T09:37:16.938Z,100379.66
2022-10-31T09:38:49.298Z,100378.38
2022-10-31T09:40:21.622Z,100381.50
2022-10-31T09:42:05.370Z,100381.13
2022-10-31T09:43:49.782Z,100375.41
2022-10-31T09:45:34.586Z,100375.41
2022-10-31T09:47:25.220Z,100375.59
2022-10-31T09:49:16.427Z,100376.25
2022-10-31T09:51:01.387Z,100372.59
2022-10-31T09:52:36.152Z,100373.44
2022-10-31T09:54:18.098Z,100376.75
2022-10-31T09:55:50.921Z,100369.66
2022-10-31T09:57:30.288Z,100371.84
2022-10-31T09:59:04.500Z,100363.47
2022-10-31T10:00:37.441Z,100370.06
2022-10-31T10:02:31.942Z,100365.03
2022-10-31T10:04:41.050Z,100355.13
2022-10-31T10:06:23.138Z,100355.38
2022-10-31T10:08:20.107Z,100350.03
2022-10-31T10:09:52.343Z,100356.91
2022-10-31T10:11:50.241Z,100356.25
2022-10-31T10:14:00.924Z,100360.78
2022-10-31T10:15:44.925Z,100357.84
2022-10-31T10:17:36.888Z,100352.28
2022-10-31T10:19:15.520Z,100349.72
2022-10-31T10:21:20.476Z,100345.88
2022-10-31T10:23:26.852Z,100346.19
2022-10-31T10:25:04.992Z,100341.59
2022-10-31T10:26:44.688Z,100343.28
2022-10-31T10:28:28.053Z,100340.75
2022-10-31T10:30:05.724Z,100340.66
2022-10-31T10:31:42.188Z,100338.00
2022-10-31T10:33:35.410Z,100328.19
2022-10-31T10:35:35.647Z,100334.22
2022-10-31T10:39:00.381Z,100327.97
2022-10-31T10:40:32.789Z,100327.22
2022-10-31T10:42:31.388Z,100320.50
2022-10-31T10:44:03.677Z,100317.75
2022-10-31T10:45:54.168Z,100329.66
2022-10-31T10:47:39.896Z,100325.69
2022-10-31T10:49:19.863Z,100319.25
2022-10-31T10:50:53.145Z,100321.03
2022-10-31T10:52:50.179Z,100319.91
2022-10-31T10:54:30.711Z,100320.00
2022-10-31T10:56:11.721Z,100323.28
2022-10-31T10:58:03.176Z,100319.50
2022-10-31T10:59:36.208Z,100316.53
2022-10-31T11:03:08.116Z,100314.03
2022-10-31T11:04:41.674Z,100310.44
2022-10-31T11:06:34.192Z,100315.09
2022-10-31T11:08:07.301Z,100309.91
2022-10-31T11:09:40.009Z,100315.75
2022-10-31T11:11:18.323Z,100310.69
2022-10-31T11:13:11.844Z,100310.38
2022-10-31T11:14:53.325Z,100299.06
2022-10-31T11:16:30.524Z,100305.94
2022-10-31T11:18:03.224Z,100300.41
2022-10-31T11:19:35.485Z,100294.13
2022-10-31T11:21:10.789Z,100297.91
2022-10-31T11:22:49.789Z,100291.97
2022-10-31T11:24:22.165Z,100298.97
2022-10-31T11:26:03.231Z,100299.94
2022-10-31T11:27:35.399Z,100295.47
2022-10-31T11:29:23.226Z,100294.41
2022-10-31T11:30:57.744Z,100296.41
2022-10-31T11:32:31.203Z,100286.78
2022-10-31T11:34:06.122Z,100293.91
2022-10-31T11:35:40.997Z,100279.28
2022-10-31T11:37:18.838Z,100291.69
2022-10-31T11:38:52.463Z,100291.03
2022-10-31T11:40:27.143Z,100285.00
2022-10-31T11:42:08.562Z,100285.00
2022-10-31T11:43:47.102Z,100288.81
2022-10-31T11:45:32.751Z,100280.78
2022-10-31T11:47:07.454Z,100277.59
2022-10-31T11:48:39.970Z,100279.50
2022-10-31T11:50:13.809Z,100283.22
2022-10-31T11:51:50.358Z,100272.63
2022-10-31T11:53:33.940Z,100269.34
2022-10-31T11:55:12.217Z,100272.22
2022-10-31T11:56:44.589Z,100273.53
2022-10-31T11:58:27.434Z,100274.19
2022-10-31T12:00:02.087Z,100271.94
2022-10-31T12:01:35.076Z,100276.59
2022-10-31T12:03:25.783Z,100276.59
2022-10-31T12:05:09.686Z,100273.25
2022-10-31T12:06:43.758Z,100272.28
2022-10-31T12:08:16.106Z,100276.50
2022-10-31T12:09:48.483Z,100277.34
2022-10-31T12:11:41.780Z,100277.78
2022-10-31T12:13:23.124Z,100274.84
2022-10-31T12:15:16.204Z,100271.25
2022-10-31T12:16:59.141Z,100274.44
2022-10-31T12:18:39.304Z,100275.34
2022-10-31T12:20:39.427Z,100277.69
2022-10-31T12:22:31.079Z,100276.53
2022-10-31T12:24:03.243Z,100268.88
2022-10-31T12:25:46.226Z,100270.81
2022-10-31T12:27:37.112Z,100265.38
2022-10-31T12:29:25.877Z,100270.38
2022-10-31T12:31:14.110Z,100263.38
2022-10-31T12:33:11.170Z,100266.84
2022-10-31T12:34:53.610Z,100267.00
2022-10-31T12:36:50.287Z,100270.56
2022-10-31T12:38:50.156Z,100267.00
2022-10-31T12:40:31.530Z,100266.75
2022-10-31T12:42:16.640Z,100272.47
2022-10-31T12:44:07.330Z,100265.03
2022-10-31T12:45:56.255Z,100268.09
2022-10-31T12:47:47.657Z,100258.34
2022-10-31T12:49:46.991Z,100267.66
2022-10-31T13:15:27.250Z,100279.69
2022-10-31T13:17:01.665Z,100277.91
2022-10-31T13:18:39.623Z,100281.19
2022-10-31T13:20:22.612Z,100277.50
2022-10-31T13:22:26.541Z,100280.03
2022-10-31T13:24:00.852Z,100280.13
2022-10-31T13:25:39.939Z,100278.00
2022-10-31T13:27:23.239Z,100278.13
2022-10-31T13:29:26.934Z,100277.69
2022-10-31T13:31:03.172Z,100276.97
2022-10-31T13:33:09.544Z,100275.47
2022-10-31T13:34:47.919Z,100280.44
2022-10-31T13:36:47.663Z,100274.50
2022-10-31T13:38:32.187Z,100280.22
2022-10-31T13:40:10.931Z,100275.97
2022-10-31T13:41:52.045Z,100270.56
2022-10-31T13:44:56.474Z,100275.25
2022-10-31T13:46:34.481Z,100278.88
2022-10-31T13:48:15.935Z,100271.47
2022-10-31T13:49:48.262Z,100278.44
2022-10-31T13:51:29.833Z,100278.22
2022-10-31T13:53:40.030Z,100272.03
2022-10-31T13:55:53.603Z,100279.03
2022-10-31T13:57:45.611Z,100276.91
2022-10-31T13:59:29.063Z,100278.91
2022-10-31T14:01:16.072Z,100280.94
2022-10-31T14:02:58.919Z,100282.94
2022-10-31T14:04:48.509Z,100282.28
2022-10-31T14:06:24.051Z,100283.66
2022-10-31T14:07:57.941Z,100270.75
2022-10-31T14:09:40.130Z,100276.22
2022-10-31T14:11:26.354Z,100272.94
2022-10-31T14:13:16.380Z,100278.75
2022-10-31T14:14:51.490Z,100274.75
2022-10-31T14:16:29.463Z,100275.91
2022-10-31T14:18:08.632Z,100278.03
2022-10-31T14:19:40.991Z,100281.16
2022-10-31T14:21:25.622Z,100272.47
2022-10-31T14:24:50.233Z,100276.88
2022-10-31T14:26:28.155Z,100280.53
2022-10-31T14:28:03.332Z,100278.19
2022-10-31T14:29:36.376Z,100282.19
2022-10-31T14:31:46.435Z,100283.13
2022-10-31T14:33:21.193Z,100282.75
2022-10-31T14:34:59.041Z,100276.28
2022-10-31T14:36:39.370Z,100284.41
2022-10-31T14:38:23.961Z,100276.94
2022-10-31T14:40:20.455Z,100273.81
2022-10-31T14:42:18.644Z,100275.25
2022-10-31T14:44:12.221Z,100282.97
2022-10-31T14:45:44.485Z,100276.66
2022-10-31T14:47:37.591Z,100274.41
2022-10-31T14:49:25.957Z,100274.84
2022-10-31T14:50:59.967Z,100277.88
2022-10-31T14:52:32.382Z,100284.53
2022-10-31T14:54:06.762Z,100274.44
2022-10-31T14:55:45.235Z,100280.00
2022-10-31T14:57:32.475Z,100276.84
2022-10-31T14:59:08.758Z,100276.44
2022-10-31T15:00:44.806Z,100275.28
2022-10-31T15:02:27.240Z,100284.47
2022-10-31T15:04:27.653Z,100280.66
2022-10-31T15:06:07.409Z,100276.00
2022-10-31T15:07:50.899Z,100277.38
2022-10-31T15:09:28.278Z,100277.03
2022-10-31T15:11:04.857Z,100279.28
2022-10-31T15:14:27.947Z,100281.19
2022-10-31T15:16:00.719Z,100286.34
2022-10-31T15:17:33.927Z,100281.53
2022-10-31T15:19:07.046Z,100281.75
2022-10-31T15:20:44.717Z,100285.81
2022-10-31T15:22:22.392Z,100295.81
2022-10-31T15:23:56.229Z,100292.91
2022-10-31T15:25:32.114Z,100292.47
2022-10-31T15:27:05.475Z,100287.88
2022-10-31T15:28:37.888Z,100292.78
2022-10-31T15:30:36.117Z,100288.72
2022-10-31T15:32:21.552Z,100293.69
2022-10-31T15:33:54.220Z,100294.38
2022-10-31T15:35:29.082Z,100296.53
2022-10-31T15:37:01.643Z,100293.59
2022-10-31T15:38:34.329Z,100293.13
2022-10-31T15:40:17.056Z,100287.16
2022-10-31T15:41:55.209Z,100291.94
2022-10-31T15:43:34.811Z,100295.03
2022-10-31T15:45:25.208Z,100292.91
2022-10-31T15:47:04.142Z,100299.66
2022-10-31T15:48:36.893Z,100303.72
2022-10-31T15:50:22.588Z,100301.44
2022-10-31T15:51:55.106Z,100304.56
2022-10-31T15:53:34.937Z,100305.72
2022-10-31T15:55:23.671Z,100306.00
2022-10-31T15:56:55.993Z,100303.94
2022-10-31T15:58:29.799Z,100309.38
2022-10-31T16:00:02.567Z,100308.81
2022-10-31T16:01:35.335Z,100311.59
2022-10-31T16:03:15.740Z,100317.94
2022-10-31T16:04:56.974Z,100318.34
2022-10-31T16:06:29.566Z,100327.53
2022-10-31T16:08:04.472Z,100325.34
2022-10-31T16:09:36.737Z,100329.22
2022-10-31T16:11:09.839Z,100326.22
2022-10-31T16:12:47.139Z,100335.31
2022-10-31T16:14:25.768Z,100327.94
2022-10-31T16:17:31.578Z,100332.94
2022-10-31T16:19:05.364Z,100328.81
2022-10-31T16:20:39.130Z,100337.03
2022-10-31T16:22:13.968Z,100338.09
2022-10-31T16:23:58.223Z,100339.41
2022-10-31T16:25:35.714Z,100346.59
2022-10-31T16:27:21.563Z,100344.16
2022-10-31T16:29:03.195Z,100349.63
2022-10-31T16:30:48.238Z,100347.22
2022-10-31T16:32:56.781Z,100348.34
2022-10-31T16:34:29.523Z,100351.34
2022-10-31T16:36:29.970Z,100357.75
2022-10-31T16:37:57.307Z,100353.75
2022-10-31T16:39:29.513Z,100350.47
2022-10-31T16:41:02.496Z,100355.03
2022-10-31T16:42:34.940Z,100353.50
2022-10-31T16:44:19.429Z,100363.09
2022-10-31T16:45:53.014Z,100364.06
2022-10-31T16:47:27.662Z,100359.06
2022-10-31T16:49:01.116Z,100355.69
2022-10-31T16:50:34.300Z,100355.72
2022-10-31T16:52:06.854Z,100359.38
2022-10-31T16:53:44.134Z,100359.66
2022-10-31T16:55:20.888Z,100367.66
2022-10-31T16:56:53.342Z,100372.31
2022-10-31T16:58:29.077Z,100361.94
2022-10-31T17:00:01.522Z,100364.75
2022-10-31T17:01:34.457Z,100372.69
2022-10-31T17:03:06.763Z,100369.34
2022-10-31T17:04:39.179Z,100368.66
2022-10-31T17:06:14.620Z,100380.09
2022-10-31T17:07:47.333Z,100375.19
2022-10-31T17:09:19.603Z,100387.59
2022-10-31T17:10:58.752Z,100383.38
2022-10-31T17:12:31.021Z,100384.50
2022-10-31T17:14:04.988Z,100385.50
2022-10-31T17:15:43.604Z,100383.91
2022-10-31T17:17:16.004Z,100389.31
2022-10-31T17:18:48.285Z,100391.09
2022-10-31T17:20:29.316Z,100387.56
2022-10-31T17:22:03.228Z,100395.47
2022-10-31T17:23:36.329Z,100395.59
2022-10-31T17:25:12.184Z,100398.22
2022-10-31T17:26:44.399Z,100393.09
2022-10-31T17:28:18.888Z,100404.44
2022-10-31T17:29:51.304Z,100396.72
2022-10-31T17:31:29.199Z,100404.56
2022-10-31T17:33:01.749Z,100398.69
2022-10-31T17:34:34.262Z,100398.69
2022-10-31T17:36:09.918Z,100404.06
2022-10-31T17:37:45.543Z,100408.50
2022-10-31T17:39:18.907Z,100404.34
2022-10-31T17:40:50.835Z,100405.28
2022-10-31T17:42:22.871Z,100401.25
2022-10-31T17:43:59.361Z,100402.19
2022-10-31T17:45:31.823Z,100396.25
2022-10-31T17:47:04.190Z,100404.13
2022-10-31T17:48:37.600Z,100402.41
2022-10-31T17:50:09.829Z,100401.47
2022-10-31T17:51:42.101Z,100407.69
2022-10-31T17:53:14.314Z,100407.75
2022-10-31T17:54:46.850Z,100406.13
2022-10-31T17:56:19.179Z,100409.66
2022-10-31T17:57:51.550Z,100402.84
2022-10-31T17:59:23.869Z,100408.13
2022-10-31T18:00:56.354Z,100405.66
2022-10-31T18:02:28.795Z,100409.16
2022-10-31T18:04:01.263Z,100406.63
2022-10-31T18:05:34.335Z,100410.16
2022-10-31T18:07:07.075Z,100404.16
2022-10-31T18:08:40.937Z,100411.16
2022-10-31T18:10:13.485Z,100413.91
2022-10-31T18:11:45.814Z,100411.31
2022-10-31T18:13:18.099Z,100408.78
2022-10-31T18:14:51.447Z,100410.59
2022-10-31T18:16:23.756Z,100411.38
2022-10-31T18:17:56.170Z,100404.56
2022-10-31T18:19:28.568Z,100410.72
2022-10-31T18:21:00.914Z,100409.03
2022-10-31T18:22:33.392Z,100407.38
2022-10-31T18:24:06.191Z,100413.56
2022-10-31T18:25:41.409Z,100412.78
2022-10-31T18:27:13.764Z,100419.88
2022-10-31T18:28:46.190Z,100412.19
2022-10-31T18:30:19.469Z,100413.97
2022-10-31T18:31:53.955Z,100414.88
2022-10-31T18:33:26.208Z,100418.47
2022-10-31T18:34:58.565Z,100423.78
2022-10-31T18:36:31.008Z,100417.78
2022-10-31T18:38:03.499Z,100420.47
2022-10-31T18:39:35.859Z,100420.47
2022-10-31T18:41:09.536Z,100425.59
2022-10-31T18:42:41.894Z,100431.75
2022-10-31T18:44:14.159Z,100418.84
2022-10-31T18:45:48.765Z,100418.91
2022-10-31T18:47:23.812Z,100425.94
2022-10-31T18:50:35.241Z,100418.47
2022-10-31T18:52:07.514Z,100427.19
2022-10-31T18:53:39.845Z,100432.41
2022-10-31T18:55:12.086Z,100429.97
2022-10-31T18:56:44.997Z,100432.63
2022-10-31T18:58:17.626Z,100429.19
2022-10-31T18:59:49.925Z,100428.25
2022-10-31T19:01:22.987Z,100434.31
2022-10-31T19:02:57.202Z,100430.06
2022-10-31T19:04:29.528Z,100428.38
2022-10-31T19:06:02.090Z,100432.78
2022-10-31T19:07:34.206Z,100422.47
2022-10-31T19:09:09.958Z,100425.97
2022-10-31T19:10:42.251Z,100425.16
2022-10-31T19:12:14.288Z,100432.13
2022-10-31T19:13:46.339Z,100424.28
2022-10-31T19:15:18.451Z,100426.03
2022-10-31T19:16:52.437Z,100424.31
2022-10-31T19:18:25.091Z,100420.00
2022-10-31T19:19:57.412Z,100430.41
2022-10-31T19:21:31.491Z,100429.59
2022-10-31T19:24:48.662Z,100428.94
2022-10-31T19:26:21.060Z,100433.28
2022-10-31T19:27:53.295Z,100431.63
2022-10-31T19:29:25.411Z,100434.28
2022-10-31T19:30:58.402Z,100436.84
2022-10-31T19:32:30.728Z,100437.75
2022-10-31T19:34:02.955Z,100434.34
2022-10-31T19:35:35.033Z,100433.47
2022-10-31T19:37:07.163Z,100437.88
2022-10-31T19:38:41.063Z,100437.00
2022-10-31T19:40:13.823Z,100438.75
2022-10-31T19:41:46.249Z,100434.50
2022-10-31T19:43:18.491Z,100444.97
2022-10-31T19:44:50.619Z,100439.88
2022-10-31T19:46:47.722Z,100445.97
2022-10-31T19:48:15.921Z,100428.66
2022-10-31T19:49:48.231Z,100440.81
2022-10-31T19:51:22.715Z,100438.19
2022-10-31T19:52:54.786Z,100434.78
2022-10-31T19:54:26.823Z,100439.13
2022-10-31T19:55:59.744Z,100443.41
2022-10-31T19:57:56.634Z,100439.97
2022-10-31T19:59:23.878Z,100438.31
2022-10-31T20:00:56.536Z,100441.72
2022-10-31T20:02:28.675Z,100441.72
2022-10-31T20:04:01.178Z,100456.56
2022-10-31T20:05:33.704Z,100446.38
2022-10-31T20:07:06.945Z,100445.59
2022-10-31T20:08:39.657Z,100446.53
2022-10-31T20:10:12.136Z,100447.47
2022-10-31T20:11:46.298Z,100456.91
2022-10-31T20:13:18.393Z,100456.97
2022-10-31T20:14:50.539Z,100461.28
2022-10-31T20:16:22.903Z,100453.41
2022-10-31T20:17:55.435Z,100460.31
2022-10-31T20:19:27.817Z,100452.53
2022-10-31T20:21:14.018Z,100457.66
2022-10-31T20:22:50.637Z,100461.09
2022-10-31T20:24:22.808Z,100455.06
2022-10-31T20:25:55.153Z,100462.91
2022-10-31T20:27:27.344Z,100469.88
2022-10-31T20:29:00.684Z,100468.97
2022-10-31T20:30:37.323Z,100464.66
2022-10-31T20:32:09.549Z,100462.09
2022-10-31T20:33:41.815Z,100462.94
2022-10-31T20:35:13.914Z,100462.09
2022-10-31T20:36:46.292Z,100463.03
2022-10-31T20:38:18.374Z,100463.94
2022-10-31T20:39:52.710Z,100468.28
2022-10-31T20:41:28.050Z,100470.88
2022-10-31T20:43:01.676Z,100462.19
2022-10-31T20:44:33.763Z,100465.63
2022-10-31T20:46:08.236Z,100467.31
2022-10-31T20:47:40.373Z,100463.00
2022-10-31T20:49:12.490Z,100472.53
2022-10-31T20:50:44.511Z,100479.44
2022-10-31T20:52:18.994Z,100470.72
2022-10-31T20:53:52.550Z,100475.91
2022-10-31T20:55:24.772Z,100471.63
2022-10-31T20:56:56.856Z,100474.22
2022-10-31T20:58:29.020Z,100475.13
2022-10-31T21:00:01.317Z,100470.88
2022-10-31T21:01:36.725Z,100473.56
2022-10-31T21:03:08.885Z,100478.81
2022-10-31T21:04:40.956Z,100481.47
2022-10-31T21:06:13.616Z,100487.53